• Join FlightAware (Why Join?)
  • Login
  • US Flag 
05:20AM EST


 

Airport Tracker/Info


-or-


 

Live Flight TrackerFlight Track Log ✈ NASA909 ✈ 10-Dec-2013 ✈ KEFD - KEFD

Flight Track Log - Related Links

Times and Time Zones

All times are in EST time to prevent confusion due to time zone crossing. See the NASA909 flight status page for this flight to view local times or setup timezone preferences in your user account.

Time Position Orientation Groundspeed Altitude Reporting Facility
EST Latitude Longitude Course Direction KTS MPH feet Rate Location/Type
09:18AM 29.6197 -95.1661 64° Northeast 239 275 800  Level Houston Center
09:19AM 29.6628 -95.0644 64° Northeast 267 307 4,200 2,400 Climbing Houston Center
09:20AM 29.6700 -95.0447 67° East 269 310 5,200 3,480 Climbing Houston Center
09:20AM 29.6922 -94.9767 69° East 358 412 7,400 3,240 Climbing Houston Center
09:21AM 29.7031 -94.9406 71° East 338 389 8,600 1,680 Climbing Houston Center
09:21AM 29.7181 -94.8725 76° East 370 426 9,000 360 Climbing Houston Center
09:22AM 29.7350 -94.8022 74° East 368 423 9,000  Level Houston Center
09:22AM 29.7450 -94.7583 75° East 371 427 9,000  Level Houston Center
09:23AM 29.7625 -94.6883 74° East 370 426 9,000  Level Houston Center
09:23AM 29.7733 -94.6392 76° East 362 417 9,000  Level Houston Center
09:24AM 29.7897 -94.5794 72° East 361 415 9,000 60 Level Houston Center
09:24AM 29.8003 -94.5272 77° East 354 407 9,100  Climbing Houston Center
09:25AM 29.8144 -94.4700 74° East 354 407 9,000  Descending Houston Center
09:25AM 29.8275 -94.4200 73° East 355 409 9,100 -120 Climbing Houston Center
09:26AM 29.8444 -94.3611 72° East 356 410 8,900  Descending Houston Center
09:26AM 29.8583 -94.3053 74° East 362 417 9,100  Climbing Houston Center
09:27AM 29.8742 -94.2489 72° East 362 417 8,900  Descending Houston Center
09:27AM 29.8894 -94.1756 76° East 385 443 9,100  Climbing Houston Center
09:28AM 29.9019 -94.1233 75° East 381 438 8,900 -180 Descending Houston Center
09:29AM 29.9303 -94.0058 74° East 384 442 8,900 -360 Level Houston Center
09:30AM 29.9625 -93.8700 75° East 373 429 8,200 -1,800 Descending Houston Center
09:31AM 29.9847 -93.7575 77° East 366 421 5,300 -2,460 Descending Houston Center
09:32AM 29.9861 -93.6572 89° East 330 380 3,200 -1,200 Descending Houston Center
09:33AM 29.9983 -93.5725 81° East 296 341 2,900 -180 Descending Houston Center
09:34AM 30.0094 -93.4889 81° East 278 320 2,900  Level Houston Center
09:35AM 30.0172 -93.3906 85° East 267 307 2,900 -300 Level Houston Center
09:36AM 29.9706 -93.3428 138° Southeast 263 303 2,300 -660 Descending Houston Center
09:37AM 29.9267 -93.4033 230° Southwest 262 302 1,600 -360 Descending Houston Center
09:38AM 29.9419 -93.4653 286° West 251 289 1,600  Level Houston Center
09:39AM 29.9906 -93.4331 30° Northeast 223 257 1,600  Level Houston Center
09:40AM 30.0289 -93.3786 51° Northeast 219 252 1,600  Level Houston Center
09:41AM 30.0678 -93.3200 53° Northeast 205 236 1,600 -300 Level Houston Center
09:42AM 30.0961 -93.2786 52° Northeast 183 211 1,000 -720 Descending Houston Center
09:43AM 30.1228 -93.2389 52° Northeast 168 193 200 780 Descending Houston Center
09:44AM 30.1306 -93.1675 83° East 217 250 2,700 1,260 Climbing Houston Center
09:46AM 30.1214 -93.0900 98° East 236 272 2,900  Climbing Houston Center
09:47AM 30.1103 -93.0083 99° East 248 285 2,800 -540 Descending Houston Center
09:48AM 30.0317 -92.9561 150° Southeast 267 307 1,900 -480 Descending Houston Center
09:49AM 29.9842 -92.9917 213° Southwest 256 295 1,900  Level Houston Center
09:50AM 30.0256 -93.0425 313° West 233 268 1,900  Level Houston Center
09:51AM 30.0750 -93.0706 334° Northwest 214 246 1,900 -120 Level Houston Center
09:52AM 30.1194 -93.0942 335° Northwest 191 220 1,700 -540 Descending Houston Center
09:53AM 30.1586 -93.1150 335° Northwest 173 199 900 -660 Descending Houston Center
09:54AM 30.2022 -93.1389 335° Northwest 165 190 400 540 Descending Houston Center
09:55AM 30.2344 -93.1903 306° West 211 243 2,100 1,500 Climbing Houston Center
09:56AM 30.1892 -93.2647 235° Southwest 259 298 3,600 1,860 Climbing Houston Center
09:56AM 30.1603 -93.3000 227° Southwest 315 362 4,800 2,280 Climbing Houston Center
09:57AM 30.1214 -93.3514 229° Southwest 306 352 6,200 1,680 Climbing Houston Center
09:58AM 30.0839 -93.4128 235° Southwest 293 337 7,600 1,740 Climbing Houston Center
09:58AM 30.0767 -93.4256 237° Southwest 289 333 8,000 1,440 Climbing Houston Center
09:59AM 30.0442 -93.4933 241° Southwest 289 333 9,100 1,440 Climbing Houston Center
09:59AM 30.0350 -93.5086 235° Southwest 286 329 9,500 720 Climbing Houston Center
10:00AM 29.9972 -93.5689 234° Southwest 288 331 9,900 480 Climbing Houston Center
10:00AM 29.9822 -93.5861 225° Southwest 293 337 10,000 60 Climbing Houston Center
10:01AM 29.9361 -93.6578 233° Southwest 293 337 10,000  Level Houston Center
10:01AM 29.9350 -93.6578 180° South 295 339 10,000  Level Houston Center
10:02AM 29.8936 -93.7350 238° Southwest 287 330 10,000  Level Houston Center
10:02AM 29.8911 -93.7411 245° Southwest 285 328 10,000  Level Houston Center
10:03AM 29.8592 -93.8372 249° West 285 328 10,000  Level Houston Center
10:04AM 29.8278 -93.9211 247° West 295 339 10,100  Climbing Houston Center
10:05AM 29.7944 -94.0050 245° Southwest 294 338 10,000 -120 Descending Houston Center
10:05AM 29.7997 -93.9931 63° Northeast 294 338 10,000 60 Level Houston Center
10:06AM 29.7631 -94.0911 247° West 280 322 10,100  Climbing Houston Center
10:07AM 29.7333 -94.1697 246° West 274 315 10,000 -120 Descending Houston Center
10:07AM 29.7322 -94.1731 249° West 276 318 10,000 60 Level Houston Center
10:08AM 29.7014 -94.2511 246° West 275 316 10,100  Climbing Houston Center
10:08AM 29.7028 -94.2503 28° Northeast 275 316 10,000 -720 Descending Houston Center
10:09AM 29.6700 -94.3347 246° West 283 326 9,400 -600 Descending Houston Center
10:09AM 29.6717 -94.3325 49° Northeast 279 321 9,400 -1,200 Level Houston Center
10:10AM 29.6417 -94.4106 246° West 291 335 8,300 -1,260 Descending Houston Center
10:10AM 29.6400 -94.4192 257° West 291 335 8,100 -1,500 Descending Houston Center
10:11AM 29.6075 -94.5111 248° West 289 333 6,700 -1,260 Descending Houston Center
10:11AM 29.6097 -94.5053 66° East 292 336 6,800 -900 Climbing Houston Center
10:12AM 29.5711 -94.6019 245° Southwest 280 322 5,700 -1,020 Descending Houston Center
10:13AM 29.5369 -94.6717 241° Southwest 278 320 4,900 -900 Descending Houston Center
10:13AM 29.5353 -94.6811 259° West 278 320 4,800 -780 Descending Houston Center
10:14AM 29.5036 -94.7600 245° Southwest 291 335 4,100 -780 Descending Houston Center
10:14AM 29.5028 -94.7658 261° West 285 328 4,000 -360 Descending Houston Center
10:15AM 29.4733 -94.8553 249° West 292 336 3,700 -540 Descending Houston Center
10:16AM 29.4458 -94.9472 251° West 328 377 3,000 -720 Descending Houston Center
10:17AM 29.4442 -94.9533 253° West 306 352 3,000  Level Houston Center
10:17AM 29.4042 -95.0389 242° Southwest 323 372 3,000  Level Houston Center
10:18AM 29.4008 -95.0458 241° Southwest 318 366 3,000 60 Level Houston Center
10:18AM 29.3761 -95.1431 254° West 275 316 3,100  Climbing Houston Center
10:19AM 29.3794 -95.1469 315° West 317 365 3,000 -840 Descending Houston Center
10:19AM 29.4286 -95.1653 342° North 216 249 2,300 -780 Descending Houston Center
10:20AM 29.4361 -95.1631 14° North 252 290 2,200 -120 Descending Houston Center
10:21AM 29.4786 -95.1617 North 158 182 2,200  Level Houston Center
10:21AM 29.4869 -95.1617 360° North 208 239 2,200 -720 Level Houston Center
10:22AM 29.5231 -95.1633 358° North 154 177 1,500 -780 Descending Houston Center
10:22AM 29.5306 -95.1625 North 178 205 1,400 -900 Descending Houston Center
10:23AM 29.5714 -95.1647 357° North 161 185 600 -900 Descending Houston Center
10:23AM 29.5761 -95.1636 12° North 168 193 500 -360 Descending Houston Center
10:24AM 29.6211 -95.1644 359° North 161 185 200 960 Descending Houston Center
10:24AM 29.6203 -95.1492 94° East 260 299 1,600 1,200 Climbing Houston Center
10:25AM 29.5753 -95.1403 170° South 210 242 1,300 -240 Descending Houston Center
10:25AM 29.5767 -95.1389 41° Northeast 195 224 1,400 -600 Climbing Houston Center
10:26AM 29.6081 -95.2125 296° West 251 289 600 -780 Descending Houston Center
10:28AM 29.6073 -95.1588 90° East  Level Estimated
10:35AM 29.6073 -95.1588 90° East  Level Estimated
10:36AM 29.6073 -95.1588 90° East  Level Estimated
10:37AM 29.6073 -95.1588 90° East  Level Estimated
10:38AM 29.6073 -95.1588 90° East  Level Estimated
10:39AM 29.6073 -95.1588 90° East  Level Estimated
10:40AM 29.6073 -95.1588 90° East  Level Estimated
10:41AM 29.6073 -95.1588 90° East  Level Estimated
10:42AM 29.6073 -95.1588 90° East  Level Estimated
10:43AM 29.6073 -95.1588 90° East  Level Estimated